createdAt,value
2022-10-03T00:03:11.777Z,12.50
2022-10-03T00:06:56.709Z,12.40
2022-10-03T00:10:46.744Z,12.40
2022-10-03T00:14:41.883Z,12.30
2022-10-03T00:18:58.767Z,12.30
2022-10-03T00:23:01.455Z,12.30
2022-10-03T00:27:01.204Z,12.30
2022-10-03T00:31:11.106Z,12.30
2022-10-03T00:35:31.560Z,12.30
2022-10-03T00:39:19.495Z,12.30
2022-10-03T00:43:45.335Z,12.30
2022-10-03T00:48:00.933Z,12.30
2022-10-03T00:52:21.626Z,12.30
2022-10-03T00:56:15.508Z,12.20
2022-10-03T01:00:24.955Z,12.10
2022-10-03T01:04:16.111Z,12.10
2022-10-03T01:08:16.804Z,12.10
2022-10-03T01:12:22.882Z,12.10
2022-10-03T01:16:15.090Z,12.00
2022-10-03T01:20:08.381Z,12.00
2022-10-03T01:24:29.674Z,12.10
2022-10-03T01:29:00.428Z,12.00
2022-10-03T01:32:48.930Z,11.90
2022-10-03T01:37:02.407Z,11.90
2022-10-03T01:41:00.464Z,11.80
2022-10-03T01:45:07.650Z,11.80
2022-10-03T01:48:59.161Z,11.80
2022-10-03T01:52:46.732Z,11.80
2022-10-03T01:56:37.970Z,11.80
2022-10-03T02:00:23.836Z,11.80
2022-10-03T02:04:31.715Z,11.80
2022-10-03T02:08:41.989Z,11.80
2022-10-03T02:12:55.072Z,11.80
2022-10-03T02:16:44.442Z,11.80
2022-10-03T02:21:01.561Z,11.70
2022-10-03T02:24:53.915Z,11.70
2022-10-03T02:29:05.127Z,11.70
2022-10-03T02:33:33.228Z,11.80
2022-10-03T02:37:56.215Z,11.70
2022-10-03T02:41:56.702Z,11.60
2022-10-03T02:46:16.590Z,11.60
2022-10-03T02:50:31.669Z,11.60
2022-10-03T02:54:23.708Z,11.70
2022-10-03T02:58:14.285Z,11.60
2022-10-03T03:02:26.853Z,11.60
2022-10-03T03:06:11.791Z,11.60
2022-10-03T03:10:21.694Z,11.60
2022-10-03T03:14:21.962Z,11.60
2022-10-03T03:18:11.334Z,11.60
2022-10-03T03:21:56.024Z,11.50
2022-10-03T03:25:43.689Z,11.60
2022-10-03T03:29:55.821Z,11.50
2022-10-03T03:33:52.944Z,11.50
2022-10-03T03:37:55.018Z,11.50
2022-10-03T03:41:50.633Z,11.40
2022-10-03T03:45:41.104Z,11.40
2022-10-03T03:49:50.594Z,11.40
2022-10-03T03:53:54.130Z,11.40
2022-10-03T03:57:36.001Z,11.30
2022-10-03T04:01:38.805Z,11.30
2022-10-03T04:05:32.787Z,11.30
2022-10-03T04:09:52.361Z,11.30
2022-10-03T04:14:08.157Z,11.20
2022-10-03T04:18:18.076Z,11.20
2022-10-03T04:22:21.375Z,11.20
2022-10-03T04:26:24.271Z,11.20
2022-10-03T04:30:20.112Z,11.20
2022-10-03T04:34:17.380Z,11.20
2022-10-03T04:38:18.225Z,11.10
2022-10-03T04:42:17.996Z,11.10
2022-10-03T04:46:44.144Z,11.10
2022-10-03T04:50:44.831Z,11.10
2022-10-03T04:55:00.059Z,11.10
2022-10-03T04:58:54.054Z,11.10
2022-10-03T05:06:41.980Z,11.00
2022-10-03T05:10:36.031Z,11.00
2022-10-03T05:14:43.187Z,11.00
2022-10-03T05:18:40.692Z,11.10
2022-10-03T05:22:34.814Z,11.10
2022-10-03T05:26:44.964Z,11.00
2022-10-03T05:31:01.995Z,11.10
2022-10-03T05:35:04.123Z,11.10
2022-10-03T05:39:20.406Z,11.10
2022-10-03T05:43:25.085Z,11.10
2022-10-03T05:47:33.062Z,11.00
2022-10-03T05:51:33.960Z,11.00
2022-10-03T05:55:29.031Z,11.00
2022-10-03T05:59:29.134Z,11.00
2022-10-03T06:03:41.853Z,11.00
2022-10-03T06:07:30.891Z,11.10
2022-10-03T06:11:46.917Z,11.10
2022-10-03T06:15:54.752Z,11.20
2022-10-03T06:19:36.716Z,11.10
2022-10-03T06:23:25.230Z,11.20
2022-10-03T06:27:44.409Z,11.20
2022-10-03T06:31:54.493Z,11.20
2022-10-03T06:36:07.246Z,11.30
2022-10-03T06:40:26.478Z,11.40
2022-10-03T06:44:32.874Z,11.40
2022-10-03T06:48:40.891Z,11.40
2022-10-03T06:52:25.807Z,11.30
2022-10-03T06:56:43.395Z,11.40
2022-10-03T07:00:52.599Z,11.40
2022-10-03T07:04:46.208Z,11.40
2022-10-03T07:08:49.430Z,11.40
2022-10-03T07:12:58.365Z,11.40
2022-10-03T07:16:49.487Z,11.50
2022-10-03T07:20:55.311Z,11.50
2022-10-03T07:25:05.420Z,11.50
2022-10-03T07:29:08.485Z,11.40
2022-10-03T07:33:28.024Z,11.40
2022-10-03T07:37:37.373Z,11.50
2022-10-03T07:41:38.648Z,11.50
2022-10-03T07:46:05.198Z,11.50
2022-10-03T07:50:19.825Z,11.60
2022-10-03T07:54:10.303Z,11.70
2022-10-03T07:58:13.334Z,11.80
2022-10-03T08:02:16.495Z,11.90
2022-10-03T08:06:36.604Z,12.00
2022-10-03T08:11:00.528Z,12.10
2022-10-03T08:14:58.922Z,12.20
2022-10-03T08:19:10.404Z,12.30
2022-10-03T08:23:08.499Z,12.30
2022-10-03T08:27:09.083Z,12.40
2022-10-03T08:31:02.593Z,12.40
2022-10-03T08:35:08.647Z,12.50
2022-10-03T08:38:58.780Z,12.60
2022-10-03T08:43:11.513Z,12.60
2022-10-03T08:47:18.077Z,12.60
2022-10-03T08:51:25.429Z,12.60
2022-10-03T08:55:22.894Z,12.80
2022-10-03T08:59:26.771Z,12.90
2022-10-03T09:03:41.926Z,13.00
2022-10-03T09:07:42.749Z,13.20
2022-10-03T09:11:33.215Z,13.40
2022-10-03T09:15:45.835Z,13.60
2022-10-03T09:19:30.830Z,13.80
2022-10-03T09:23:39.039Z,14.10
2022-10-03T09:27:46.953Z,14.40
2022-10-03T09:31:58.402Z,14.80
2022-10-03T09:36:08.068Z,15.20
2022-10-03T09:39:55.531Z,15.60
2022-10-03T09:44:02.272Z,15.80
2022-10-03T09:48:02.561Z,15.90
2022-10-03T09:51:54.881Z,16.00
2022-10-03T09:56:19.954Z,16.10
2022-10-03T10:00:22.417Z,16.20
2022-10-03T10:04:50.032Z,16.40
2022-10-03T10:08:51.305Z,16.40
2022-10-03T10:12:54.699Z,16.60
2022-10-03T10:17:26.948Z,16.70
2022-10-03T10:21:36.770Z,16.90
2022-10-03T10:25:33.559Z,16.90
2022-10-03T10:29:40.080Z,17.00
2022-10-03T10:34:12.954Z,17.00
2022-10-03T10:38:29.385Z,17.00
2022-10-03T10:42:41.564Z,17.10
2022-10-03T10:47:04.098Z,17.20
2022-10-03T10:50:58.076Z,17.40
2022-10-03T10:54:52.169Z,17.60
2022-10-03T10:58:45.706Z,17.90
2022-10-03T11:02:33.877Z,17.90
2022-10-03T11:06:33.842Z,18.00
2022-10-03T11:10:15.685Z,18.20
2022-10-03T11:14:22.247Z,18.40
2022-10-03T11:18:22.832Z,18.60
2022-10-03T11:22:26.336Z,18.70
2022-10-03T11:26:39.769Z,18.80
2022-10-03T11:30:46.172Z,18.90
2022-10-03T11:34:52.769Z,19.10
2022-10-03T11:38:43.720Z,19.40
2022-10-03T11:42:50.879Z,19.60
2022-10-03T11:46:50.960Z,19.70
2022-10-03T11:50:51.522Z,19.80
2022-10-03T11:54:38.099Z,19.70
2022-10-03T11:58:41.369Z,19.80
2022-10-03T12:02:36.280Z,19.80
2022-10-03T12:07:15.930Z,19.90
2022-10-03T12:11:22.214Z,19.80
2022-10-03T12:15:37.130Z,19.70
2022-10-03T12:19:41.393Z,19.70
2022-10-03T12:23:53.168Z,19.70
2022-10-03T12:28:00.612Z,19.60
2022-10-03T12:32:37.176Z,19.60
2022-10-03T12:36:24.232Z,19.60
2022-10-03T12:40:16.947Z,19.70
2022-10-03T12:44:23.523Z,19.70
2022-10-03T12:48:48.087Z,19.70
2022-10-03T12:52:35.602Z,19.60
2022-10-03T12:56:25.333Z,19.70
2022-10-03T13:00:20.917Z,19.70
2022-10-03T13:04:12.231Z,19.70
2022-10-03T13:08:06.893Z,19.80
2022-10-03T13:12:27.704Z,19.80
2022-10-03T13:16:31.729Z,19.70
2022-10-03T13:21:40.767Z,19.70
2022-10-03T13:25:21.755Z,19.70
2022-10-03T13:29:12.806Z,19.70
2022-10-03T13:33:02.380Z,19.80
2022-10-03T13:36:54.588Z,19.90
2022-10-03T13:40:43.457Z,19.80
2022-10-03T13:44:49.306Z,19.80
2022-10-03T13:48:33.404Z,19.90
2022-10-03T13:52:30.332Z,20.10
2022-10-03T13:56:32.809Z,20.10
2022-10-03T14:00:23.485Z,20.20
2022-10-03T14:04:44.592Z,20.30
2022-10-03T14:08:50.773Z,20.70
2022-10-03T14:12:58.488Z,21.00
2022-10-03T14:17:06.029Z,20.90
2022-10-03T14:20:53.704Z,20.70
2022-10-03T14:25:12.661Z,20.50
2022-10-03T14:29:13.121Z,20.40
2022-10-03T14:33:12.040Z,20.30
2022-10-03T14:37:01.703Z,20.20
2022-10-03T14:40:52.250Z,20.20
2022-10-03T14:44:36.966Z,20.30
2022-10-03T14:48:27.936Z,20.40
2022-10-03T14:52:34.113Z,20.50
2022-10-03T14:56:21.000Z,20.50
2022-10-03T15:00:05.259Z,20.30
2022-10-03T15:03:55.905Z,20.20
2022-10-03T15:07:47.024Z,20.20
2022-10-03T15:11:34.221Z,20.50
2022-10-03T15:15:23.372Z,21.00
2022-10-03T15:19:13.817Z,21.50
2022-10-03T15:23:03.392Z,22.00
2022-10-03T15:26:50.563Z,22.40
2022-10-03T15:30:36.321Z,22.70
2022-10-03T15:34:33.481Z,23.00
2022-10-03T15:38:29.490Z,23.00
2022-10-03T15:42:25.568Z,22.90
2022-10-03T15:46:19.596Z,22.80
2022-10-03T15:50:23.529Z,22.40
2022-10-03T15:54:09.261Z,22.00
2022-10-03T15:58:00.659Z,21.60
2022-10-03T16:01:47.318Z,21.20
2022-10-03T16:05:30.949Z,20.90
2022-10-03T16:13:18.372Z,20.40
2022-10-03T16:17:05.260Z,20.10
2022-10-03T16:20:56.627Z,19.90
2022-10-03T16:25:22.901Z,19.80
2022-10-03T16:29:16.158Z,19.60
2022-10-03T16:33:15.989Z,19.50
2022-10-03T16:36:59.885Z,19.40
2022-10-03T16:40:41.905Z,19.30
2022-10-03T16:44:48.919Z,19.20
2022-10-03T16:48:52.564Z,19.10
2022-10-03T16:52:40.155Z,19.10
2022-10-03T16:56:37.236Z,19.00
2022-10-03T17:00:30.160Z,18.90
2022-10-03T17:04:28.912Z,18.80
2022-10-03T17:08:39.990Z,18.70
2022-10-03T17:12:22.294Z,18.60
2022-10-03T17:16:13.731Z,18.60
2022-10-03T17:20:14.744Z,18.50
2022-10-03T17:24:21.165Z,18.40
2022-10-03T17:28:36.860Z,18.30
2022-10-03T17:32:35.165Z,18.30
2022-10-03T17:37:05.112Z,18.30
2022-10-03T17:41:12.823Z,18.20
2022-10-03T17:45:02.487Z,18.10
2022-10-03T17:48:55.734Z,18.00
2022-10-03T17:56:43.641Z,17.80
2022-10-03T18:00:31.248Z,17.60
2022-10-03T18:08:23.123Z,17.40
2022-10-03T18:12:40.465Z,17.20
2022-10-03T18:16:37.541Z,17.20
2022-10-03T18:20:32.520Z,17.10
2022-10-03T18:24:45.145Z,17.00
2022-10-03T18:28:32.101Z,17.00
2022-10-03T18:32:23.414Z,16.90
2022-10-03T18:36:25.258Z,16.90
2022-10-03T18:40:19.915Z,16.80
2022-10-03T18:44:02.463Z,16.80
2022-10-03T18:47:54.988Z,16.70
2022-10-03T18:55:47.336Z,16.70
2022-10-03T18:59:58.965Z,16.60
2022-10-03T19:08:19.044Z,16.60
2022-10-03T19:12:13.093Z,16.60
2022-10-03T19:16:00.912Z,16.60
2022-10-03T19:19:59.484Z,16.60
2022-10-03T19:23:42.948Z,16.60
2022-10-03T19:27:42.696Z,16.60
2022-10-03T19:31:40.501Z,16.60
2022-10-03T19:35:24.569Z,16.60
2022-10-03T19:39:07.892Z,16.60
2022-10-03T19:42:54.382Z,16.60
2022-10-03T19:46:59.559Z,16.60
2022-10-03T19:50:41.461Z,16.60
2022-10-03T19:54:43.630Z,16.60
2022-10-03T19:58:27.787Z,16.60
2022-10-03T20:02:11.891Z,16.60
2022-10-03T20:06:06.293Z,16.60
2022-10-03T20:10:03.758Z,16.60
2022-10-03T20:13:48.745Z,16.60
2022-10-03T20:17:31.771Z,16.60
2022-10-03T20:21:19.792Z,16.60
2022-10-03T20:25:02.505Z,16.50
2022-10-03T20:29:31.645Z,16.60
2022-10-03T20:33:29.740Z,16.50
2022-10-03T20:37:40.843Z,16.50
2022-10-03T20:41:47.643Z,16.50
2022-10-03T20:45:30.948Z,16.40
2022-10-03T20:49:18.984Z,16.40
2022-10-03T20:53:02.212Z,16.40
2022-10-03T20:57:14.181Z,16.40
2022-10-03T21:01:21.985Z,16.40
2022-10-03T21:05:17.957Z,16.30
2022-10-03T21:09:05.539Z,16.30
2022-10-03T21:12:51.433Z,16.30
2022-10-03T21:16:43.388Z,16.30
2022-10-03T21:20:34.872Z,16.30
2022-10-03T21:24:23.201Z,16.30
2022-10-03T21:28:14.627Z,16.20
2022-10-03T21:32:21.405Z,16.20
2022-10-03T21:36:12.768Z,16.20
2022-10-03T21:40:21.693Z,16.20
2022-10-03T21:44:26.768Z,16.20
2022-10-03T21:48:32.589Z,16.20
2022-10-03T21:52:23.241Z,16.20
2022-10-03T21:56:24.801Z,16.10
2022-10-03T22:00:18.275Z,16.10
2022-10-03T22:04:20.201Z,16.10
2022-10-03T22:08:23.724Z,16.10
2022-10-03T22:12:07.278Z,16.00
2022-10-03T22:15:54.143Z,15.90
2022-10-03T22:19:42.145Z,15.90
2022-10-03T22:23:51.969Z,15.80
2022-10-03T22:27:59.785Z,15.80
2022-10-03T22:32:16.232Z,15.70
2022-10-03T22:36:03.260Z,15.70
2022-10-03T22:39:48.464Z,15.60
2022-10-03T22:43:30.837Z,15.60
2022-10-03T22:47:30.184Z,15.60
2022-10-03T22:51:13.992Z,15.60
2022-10-03T22:54:56.944Z,15.60
2022-10-03T22:58:39.909Z,15.60
2022-10-03T23:02:38.895Z,15.50
2022-10-03T23:06:42.273Z,15.50
2022-10-03T23:10:48.965Z,15.50
2022-10-03T23:14:35.598Z,15.50
2022-10-03T23:18:29.970Z,15.50
2022-10-03T23:22:18.653Z,15.50
2022-10-03T23:26:38.266Z,15.50
2022-10-03T23:30:20.214Z,15.50
2022-10-03T23:34:02.141Z,15.50
2022-10-03T23:37:48.956Z,15.50
2022-10-03T23:41:44.957Z,15.50
2022-10-03T23:45:29.628Z,15.60
2022-10-03T23:49:12.349Z,15.70
2022-10-03T23:52:58.772Z,15.70
2022-10-03T23:56:44.107Z,15.80
